Time;durP1;ratioP1;P1;durP2;ratioP2;P2;SDS_P1;SDS_P2;PMS_P1;PMS_P2;Temp;Humidity;BMP_temperature;BMP_pressure;BME280_temperature;BME280_humidity;BME280_pressure;Samples;Min_cycle;Max_cycle;Signal;HPM_P1;HPM_P2
2023/02/05 00:01:23;;;;;;;12.88;6.75;;;;;;;;;;4939457;28;20062;-77
2023/02/05 00:03:50;;;;;;;16.27;6.82;;;;;;;;;;4939817;28;20542;-77
2023/02/05 00:06:17;;;;;;;15.75;8.07;;;;;;;;;;4940056;28;20538;-78
2023/02/05 00:08:44;;;;;;;10.32;7.13;;;;;;;;;;4971014;28;20063;-78
2023/02/05 00:11:11;;;;;;;11.15;6.95;;;;;;;;;;4939715;28;20061;-77
2023/02/05 00:13:38;;;;;;;12.65;6.78;;;;;;;;;;4947874;28;20078;-77
2023/02/05 00:16:13;;;;;;;13.80;6.60;;;;;;;;;;4945560;28;20055;-77
2023/02/05 00:18:39;;;;;;;12.98;6.60;;;;;;;;;;4951093;28;20403;-77
2023/02/05 00:21:07;;;;;;;9.00;5.82;;;;;;;;;;4976498;28;20046;-78
2023/02/05 00:23:34;;;;;;;10.43;6.93;;;;;;;;;;4936351;29;20085;-77
2023/02/05 00:26:02;;;;;;;13.15;7.22;;;;;;;;;;4955663;28;20058;-78
2023/02/05 00:28:33;;;;;;;11.48;7.40;;;;;;;;;;4939978;28;20062;-78
2023/02/05 00:31:00;;;;;;;12.13;6.60;;;;;;;;;;4940422;28;20154;-77
2023/02/05 00:33:27;;;;;;;9.00;6.18;;;;;;;;;;4940363;28;20070;-78
2023/02/05 00:35:54;;;;;;;10.88;6.40;;;;;;;;;;4950637;28;20051;-78
2023/02/05 00:38:22;;;;;;;11.70;5.97;;;;;;;;;;4921575;29;20677;-78
2023/02/05 00:40:49;;;;;;;9.52;6.35;;;;;;;;;;4952604;29;20050;-78
2023/02/05 00:43:16;;;;;;;10.95;7.20;;;;;;;;;;4936527;29;20479;-78
2023/02/05 00:45:43;;;;;;;11.75;6.45;;;;;;;;;;4951955;29;20472;-77
2023/02/05 00:48:10;;;;;;;11.63;7.15;;;;;;;;;;4951451;29;20051;-78
2023/02/05 00:50:36;;;;;;;15.02;7.95;;;;;;;;;;4951582;29;20051;-78
2023/02/05 00:53:03;;;;;;;12.45;6.93;;;;;;;;;;4952247;29;20083;-77
2023/02/05 00:55:30;;;;;;;10.23;6.53;;;;;;;;;;4968017;28;20055;-78
2023/02/05 00:57:57;;;;;;;10.50;6.55;;;;;;;;;;4936241;29;20059;-78
2023/02/05 01:00:25;;;;;;;11.93;7.15;;;;;;;;;;4946917;28;20463;-78
2023/02/05 01:02:53;;;;;;;10.13;6.45;;;;;;;;;;4953125;28;20055;-78
2023/02/05 01:05:20;;;;;;;9.60;6.85;;;;;;;;;;4935264;29;20066;-78
2023/02/05 01:07:47;;;;;;;11.25;6.80;;;;;;;;;;4949300;28;20534;-78
2023/02/05 01:10:14;;;;;;;12.35;6.38;;;;;;;;;;4955178;28;20050;-77
2023/02/05 01:12:41;;;;;;;10.23;6.85;;;;;;;;;;4955179;28;20055;-78
2023/02/05 01:15:08;;;;;;;11.52;7.80;;;;;;;;;;4938752;28;20059;-78
2023/02/05 01:17:35;;;;;;;9.55;6.95;;;;;;;;;;4938338;28;20061;-77
2023/02/05 01:20:02;;;;;;;9.77;6.80;;;;;;;;;;4958280;28;20062;-77
2023/02/05 01:22:29;;;;;;;9.57;7.22;;;;;;;;;;4938598;28;20400;-77
2023/02/05 01:24:56;;;;;;;10.05;6.90;;;;;;;;;;4938318;28;20496;-77
2023/02/05 01:27:23;;;;;;;8.10;6.65;;;;;;;;;;4954425;28;20085;-77
2023/02/05 01:29:50;;;;;;;9.38;7.13;;;;;;;;;;4938060;28;20054;-77
2023/02/05 01:32:17;;;;;;;8.85;6.30;;;;;;;;;;4953945;28;20078;-77
2023/02/05 01:34:44;;;;;;;11.77;6.50;;;;;;;;;;4953437;28;20235;-77
2023/02/05 01:37:11;;;;;;;12.18;6.97;;;;;;;;;;4937528;28;20050;-77
2023/02/05 01:39:38;;;;;;;9.80;6.70;;;;;;;;;;4970829;28;20053;-77
2023/02/05 01:42:26;;;;;;;11.70;6.35;;;;;;;;;;4955442;28;20411;-76
2023/02/05 01:45:35;;;;;;;10.20;6.50;;;;;;;;;;4938518;28;20051;-77
2023/02/05 01:48:03;;;;;;;9.00;6.38;;;;;;;;;;4979086;28;20047;-78
2023/02/05 01:50:34;;;;;;;10.35;6.53;;;;;;;;;;4949745;28;20047;-77
2023/02/05 01:53:13;;;;;;;7.57;5.97;;;;;;;;;;4943383;28;20050;-77
2023/02/05 01:55:43;;;;;;;11.18;6.78;;;;;;;;;;4958116;28;20054;-77
2023/02/05 01:58:10;;;;;;;12.07;6.65;;;;;;;;;;4958235;28;20090;-78
2023/02/05 02:00:37;;;;;;;9.82;7.05;;;;;;;;;;4974526;28;20535;-77
2023/02/05 02:03:04;;;;;;;8.50;6.20;;;;;;;;;;4958376;28;20050;-78
2023/02/05 02:05:31;;;;;;;11.07;7.00;;;;;;;;;;4974758;28;20141;-79
2023/02/05 02:07:58;;;;;;;9.45;5.93;;;;;;;;;;4944910;28;20051;-79
2023/02/05 02:10:25;;;;;;;10.13;6.93;;;;;;;;;;4948784;28;20051;-79
2023/02/05 02:12:52;;;;;;;12.40;7.28;;;;;;;;;;4958655;28;20047;-79
2023/02/05 02:15:22;;;;;;;13.48;8.65;;;;;;;;;;4944764;28;20539;-79
2023/02/05 02:17:51;;;;;;;16.40;11.57;;;;;;;;;;4944838;28;20055;-79
2023/02/05 02:20:25;;;;;;;15.75;10.93;;;;;;;;;;4945443;28;20415;-79
2023/02/05 02:22:54;;;;;;;13.63;10.63;;;;;;;;;;4940357;28;20047;-78
2023/02/05 02:26:18;;;;;;;12.63;9.43;;;;;;;;;;4970459;28;20055;-78
2023/02/05 02:28:50;;;;;;;10.32;8.07;;;;;;;;;;4896073;29;20608;-78
2023/02/05 02:31:21;;;;;;;9.70;7.88;;;;;;;;;;4880350;29;20429;-78
2023/02/05 02:33:59;;;;;;;10.50;7.03;;;;;;;;;;4910353;29;20058;-78
2023/02/05 02:36:35;;;;;;;11.75;6.85;;;;;;;;;;4939183;29;20427;-78
2023/02/05 02:39:06;;;;;;;9.40;6.57;;;;;;;;;;4934964;28;20105;-78
2023/02/05 02:41:42;;;;;;;9.98;6.38;;;;;;;;;;4957654;28;20724;-77
2023/02/05 02:44:12;;;;;;;7.65;6.07;;;;;;;;;;4941712;28;20054;-77
2023/02/05 02:46:50;;;;;;;10.55;6.15;;;;;;;;;;4941903;28;20133;-78
2023/02/05 02:49:22;;;;;;;9.02;5.70;;;;;;;;;;4942579;28;20058;-78
2023/02/05 02:51:48;;;;;;;10.05;6.32;;;;;;;;;;4942856;28;20486;-78
2023/02/05 02:54:16;;;;;;;7.38;6.07;;;;;;;;;;4942231;28;20070;-78
2023/02/05 02:56:43;;;;;;;10.05;6.10;;;;;;;;;;4958105;28;20073;-78
2023/02/05 02:59:16;;;;;;;10.07;6.30;;;;;;;;;;4941986;28;20475;-78
2023/02/05 03:01:44;;;;;;;7.88;6.28;;;;;;;;;;4956720;28;20142;-77
2023/02/05 03:04:53;;;;;;;11.82;7.35;;;;;;;;;;4946418;28;20047;-77
2023/02/05 03:07:22;;;;;;;12.57;6.80;;;;;;;;;;4952120;29;20085;-77
2023/02/05 03:09:57;;;;;;;8.18;5.75;;;;;;;;;;4960648;28;20558;-77
2023/02/05 03:12:23;;;;;;;7.95;6.00;;;;;;;;;;4956182;28;20526;-77
2023/02/05 03:14:51;;;;;;;7.82;5.90;;;;;;;;;;4939366;28;20408;-77
2023/02/05 03:17:19;;;;;;;7.88;5.97;;;;;;;;;;4939423;28;20558;-77
2023/02/05 03:19:47;;;;;;;8.40;6.25;;;;;;;;;;4940172;28;20051;-77
2023/02/05 03:22:14;;;;;;;8.98;5.72;;;;;;;;;;4940741;28;20051;-77
2023/02/05 03:24:41;;;;;;;7.50;5.25;;;;;;;;;;4956765;28;20247;-77
2023/02/05 03:27:08;;;;;;;8.90;5.50;;;;;;;;;;4940440;28;20157;-77
2023/02/05 03:29:43;;;;;;;7.13;5.40;;;;;;;;;;4939661;28;20050;-76
2023/02/05 03:32:21;;;;;;;8.18;5.80;;;;;;;;;;4941799;28;20456;-77
2023/02/05 03:35:26;;;;;;;10.63;6.40;;;;;;;;;;4956084;28;20404;-77
2023/02/05 03:38:07;;;;;;;8.88;5.38;;;;;;;;;;4932474;29;20134;-76
2023/02/05 03:40:54;;;;;;;8.60;5.43;;;;;;;;;;4952830;28;20065;-77
2023/02/05 03:43:29;;;;;;;9.80;5.40;;;;;;;;;;4957668;28;20507;-77
2023/02/05 03:46:21;;;;;;;9.27;6.00;;;;;;;;;;4971659;28;20117;-77
2023/02/05 03:49:21;;;;;;;9.18;5.55;;;;;;;;;;4973083;28;20078;-76
2023/02/05 03:52:02;;;;;;;7.60;5.72;;;;;;;;;;4923176;29;20170;-77
2023/02/05 03:54:55;;;;;;;9.30;5.45;;;;;;;;;;4991010;28;20074;-77
2023/02/05 03:57:32;;;;;;;6.53;5.80;;;;;;;;;;4934628;28;20142;-77
2023/02/05 03:59:59;;;;;;;11.30;6.70;;;;;;;;;;4957959;28;20133;-77
2023/02/05 04:02:25;;;;;;;9.45;5.88;;;;;;;;;;4941449;28;20142;-78
2023/02/05 04:04:52;;;;;;;9.18;5.85;;;;;;;;;;4957058;28;20054;-78
2023/02/05 04:07:19;;;;;;;9.00;5.40;;;;;;;;;;4956377;28;20146;-78
2023/02/05 04:09:46;;;;;;;9.05;5.78;;;;;;;;;;4939906;28;20047;-78
2023/02/05 04:12:13;;;;;;;7.28;5.30;;;;;;;;;;4938809;28;20050;-78
2023/02/05 04:14:40;;;;;;;8.15;5.68;;;;;;;;;;4955071;28;20051;-78
2023/02/05 04:17:07;;;;;;;6.70;5.68;;;;;;;;;;4939443;28;20574;-77
2023/02/05 04:19:34;;;;;;;8.40;5.55;;;;;;;;;;4939221;28;20058;-77
2023/02/05 04:22:01;;;;;;;9.05;6.35;;;;;;;;;;4955270;28;20063;-77
2023/02/05 04:24:28;;;;;;;10.70;6.57;;;;;;;;;;4938913;28;20566;-77
2023/02/05 04:26:55;;;;;;;7.80;6.13;;;;;;;;;;4939411;28;20414;-76
2023/02/05 04:29:22;;;;;;;9.93;5.95;;;;;;;;;;4939116;28;20353;-76
2023/02/05 04:31:49;;;;;;;8.15;6.00;;;;;;;;;;4953982;28;20051;-77
2023/02/05 04:34:15;;;;;;;10.07;6.22;;;;;;;;;;4954324;28;20062;-76
2023/02/05 04:36:42;;;;;;;11.88;6.05;;;;;;;;;;4938887;28;20419;-76
2023/02/05 04:39:09;;;;;;;8.15;6.15;;;;;;;;;;4954475;28;20093;-77
2023/02/05 04:41:36;;;;;;;10.07;6.13;;;;;;;;;;4935776;29;20532;-78
2023/02/05 04:44:04;;;;;;;10.50;6.22;;;;;;;;;;4952182;29;20055;-78
2023/02/05 04:46:31;;;;;;;12.80;6.30;;;;;;;;;;4951407;28;20142;-77
2023/02/05 04:48:59;;;;;;;8.32;5.60;;;;;;;;;;4966705;28;20118;-77
2023/02/05 04:51:26;;;;;;;9.70;6.28;;;;;;;;;;4966367;28;20046;-77
2023/02/05 04:53:53;;;;;;;9.77;5.88;;;;;;;;;;4954333;28;20046;-77
2023/02/05 04:56:20;;;;;;;11.55;6.28;;;;;;;;;;4954531;28;20051;-77
2023/02/05 04:58:47;;;;;;;8.60;6.63;;;;;;;;;;4954445;28;20061;-77
2023/02/05 05:01:19;;;;;;;9.10;5.95;;;;;;;;;;4951397;28;20044;-77
2023/02/05 05:03:46;;;;;;;8.38;5.68;;;;;;;;;;4935360;29;20104;-77
2023/02/05 05:06:14;;;;;;;10.38;6.57;;;;;;;;;;4935101;29;20063;-76
2023/02/05 05:08:41;;;;;;;9.60;5.55;;;;;;;;;;4934826;28;20432;-77
2023/02/05 05:11:16;;;;;;;8.75;6.38;;;;;;;;;;4947289;28;20055;-77
2023/02/05 05:13:43;;;;;;;9.27;5.95;;;;;;;;;;4939216;28;20063;-77
2023/02/05 05:16:11;;;;;;;9.07;6.45;;;;;;;;;;4953929;28;20093;-77
2023/02/05 05:18:39;;;;;;;10.35;6.85;;;;;;;;;;4969708;28;20444;-77
2023/02/05 05:21:06;;;;;;;8.38;5.65;;;;;;;;;;4962274;28;20130;-77
2023/02/05 05:23:34;;;;;;;15.75;6.82;;;;;;;;;;4937645;28;20140;-77
2023/02/05 05:26:05;;;;;;;9.75;7.07;;;;;;;;;;4938225;28;20489;-77
2023/02/05 05:28:33;;;;;;;10.93;6.30;;;;;;;;;;4937701;28;20125;-77
2023/02/05 05:31:18;;;;;;;11.68;6.20;;;;;;;;;;4934850;28;20055;-78
2023/02/05 05:33:45;;;;;;;8.10;5.75;;;;;;;;;;4957413;28;20073;-78
2023/02/05 05:36:13;;;;;;;11.48;6.68;;;;;;;;;;4951303;28;20061;-77
2023/02/05 05:38:40;;;;;;;9.38;5.80;;;;;;;;;;4919232;29;20055;-78
2023/02/05 05:43:53;;;;;;;11.98;6.90;;;;;;;;;;4957320;28;20051;-77
2023/02/05 05:46:22;;;;;;;10.70;5.65;;;;;;;;;;4937618;28;20051;-76
2023/02/05 05:48:50;;;;;;;11.05;6.80;;;;;;;;;;4953271;28;20059;-77
2023/02/05 05:51:18;;;;;;;9.20;6.38;;;;;;;;;;4953693;28;20126;-77
2023/02/05 05:53:45;;;;;;;9.35;7.03;;;;;;;;;;4943621;28;20055;-77
2023/02/05 05:56:12;;;;;;;10.55;6.22;;;;;;;;;;4938768;28;20089;-77
2023/02/05 05:58:40;;;;;;;12.90;6.70;;;;;;;;;;4938022;28;20047;-77
2023/02/05 06:01:07;;;;;;;12.30;7.15;;;;;;;;;;4967334;29;20106;-77
2023/02/05 06:03:34;;;;;;;11.07;6.43;;;;;;;;;;4934474;29;20142;-77
2023/02/05 06:06:03;;;;;;;10.32;6.32;;;;;;;;;;4950053;29;20048;-77
2023/02/05 06:08:30;;;;;;;11.23;6.78;;;;;;;;;;4934026;29;20055;-77
2023/02/05 06:10:57;;;;;;;12.57;6.78;;;;;;;;;;4979469;28;20058;-76
2023/02/05 06:13:24;;;;;;;12.20;6.55;;;;;;;;;;4937532;28;20106;-77
2023/02/05 06:15:53;;;;;;;11.57;6.47;;;;;;;;;;4937384;28;20482;-76
2023/02/05 06:18:20;;;;;;;8.88;6.28;;;;;;;;;;4934118;28;20150;-77
2023/02/05 06:20:49;;;;;;;8.70;5.85;;;;;;;;;;4934679;29;20051;-76
2023/02/05 06:23:16;;;;;;;10.68;5.88;;;;;;;;;;4918626;29;20591;-77
2023/02/05 06:25:43;;;;;;;11.93;6.53;;;;;;;;;;4918478;29;20063;-77
2023/02/05 06:28:11;;;;;;;10.15;6.47;;;;;;;;;;4951215;28;20404;-77
2023/02/05 06:30:38;;;;;;;9.50;6.63;;;;;;;;;;4939607;29;20099;-77
2023/02/05 06:33:05;;;;;;;12.55;6.97;;;;;;;;;;4934480;29;20058;-77
2023/02/05 06:35:32;;;;;;;10.60;6.53;;;;;;;;;;4936275;29;20137;-77
2023/02/05 06:37:59;;;;;;;12.15;6.88;;;;;;;;;;4940858;28;20046;-77
2023/02/05 06:40:27;;;;;;;11.15;7.13;;;;;;;;;;4940901;28;20063;-76
2023/02/05 06:42:54;;;;;;;13.25;6.53;;;;;;;;;;4941202;28;20055;-76
2023/02/05 06:45:21;;;;;;;11.25;6.68;;;;;;;;;;4940808;28;20562;-77
2023/02/05 06:47:49;;;;;;;16.63;8.05;;;;;;;;;;4940603;28;20062;-77
2023/02/05 06:50:15;;;;;;;12.88;7.50;;;;;;;;;;4956503;28;20687;-76
2023/02/05 06:52:42;;;;;;;10.00;6.22;;;;;;;;;;4957374;28;20422;-77
2023/02/05 06:55:10;;;;;;;13.50;6.32;;;;;;;;;;4957018;28;20082;-77
2023/02/05 06:57:36;;;;;;;10.15;6.15;;;;;;;;;;4941079;28;20142;-72
2023/02/05 07:00:04;;;;;;;11.73;5.97;;;;;;;;;;4956581;28;20050;-76
2023/02/05 07:02:31;;;;;;;14.18;7.45;;;;;;;;;;4940692;28;20047;-76
2023/02/05 07:05:01;;;;;;;10.25;5.75;;;;;;;;;;4940438;28;20061;-76
2023/02/05 07:07:28;;;;;;;9.73;5.85;;;;;;;;;;4957512;28;20150;-76
2023/02/05 07:09:55;;;;;;;11.23;5.93;;;;;;;;;;4941640;28;20073;-77
2023/02/05 07:12:22;;;;;;;8.18;5.85;;;;;;;;;;4940508;28;20558;-77
2023/02/05 07:14:49;;;;;;;9.88;5.65;;;;;;;;;;4957124;28;20058;-77
2023/02/05 07:17:15;;;;;;;14.13;6.10;;;;;;;;;;4956869;28;20555;-78
2023/02/05 07:19:42;;;;;;;10.70;6.07;;;;;;;;;;4969413;28;20055;-77
2023/02/05 07:22:12;;;;;;;12.38;6.85;;;;;;;;;;4940372;28;20082;-78
2023/02/05 07:24:39;;;;;;;14.82;6.53;;;;;;;;;;4941791;28;20051;-78
2023/02/05 07:27:06;;;;;;;11.43;7.07;;;;;;;;;;4981098;28;20102;-77
2023/02/05 07:29:32;;;;;;;11.88;6.40;;;;;;;;;;4938725;28;20055;-77
2023/02/05 07:31:59;;;;;;;13.27;6.90;;;;;;;;;;4954523;28;20050;-77
2023/02/05 07:34:26;;;;;;;9.13;6.50;;;;;;;;;;4938684;28;20058;-78
2023/02/05 07:36:53;;;;;;;13.05;7.28;;;;;;;;;;4938342;28;20499;-77
2023/02/05 07:39:19;;;;;;;13.90;6.70;;;;;;;;;;4937925;28;20145;-77
2023/02/05 07:41:46;;;;;;;13.35;10.90;;;;;;;;;;4927036;29;20054;-77
2023/02/05 07:44:13;;;;;;;10.80;7.53;;;;;;;;;;4919920;29;20482;-77
2023/02/05 07:46:40;;;;;;;11.13;6.68;;;;;;;;;;4937479;28;20479;-76
2023/02/05 07:49:07;;;;;;;10.77;6.75;;;;;;;;;;4938193;28;20066;-77
2023/02/05 07:51:34;;;;;;;12.55;6.22;;;;;;;;;;4954060;28;20061;-77
2023/02/05 07:54:05;;;;;;;8.13;5.47;;;;;;;;;;4954517;28;20055;-77
2023/02/05 07:56:32;;;;;;;12.80;6.20;;;;;;;;;;4939346;28;20054;-77
2023/02/05 07:58:59;;;;;;;9.27;6.07;;;;;;;;;;4919516;29;20066;-77
2023/02/05 08:01:26;;;;;;;10.50;6.10;;;;;;;;;;4919586;29;20074;-78
2023/02/05 08:03:53;;;;;;;10.00;6.93;;;;;;;;;;4935300;29;20055;-77
2023/02/05 08:06:19;;;;;;;8.88;6.55;;;;;;;;;;4919866;29;20059;-78
2023/02/05 08:08:46;;;;;;;9.35;6.55;;;;;;;;;;4935114;29;20061;-77
2023/02/05 08:11:15;;;;;;;11.32;6.68;;;;;;;;;;4921694;29;20075;-77
2023/02/05 08:13:42;;;;;;;11.65;6.90;;;;;;;;;;4919424;29;20082;-77
2023/02/05 08:16:10;;;;;;;12.13;7.05;;;;;;;;;;4919094;29;20146;-77
2023/02/05 08:18:37;;;;;;;10.57;6.50;;;;;;;;;;4918947;29;20050;-78
2023/02/05 08:21:04;;;;;;;8.75;6.65;;;;;;;;;;4918821;29;20090;-77
2023/02/05 08:23:31;;;;;;;10.85;6.20;;;;;;;;;;4920863;28;20055;-78
2023/02/05 08:25:58;;;;;;;10.25;6.25;;;;;;;;;;4953872;28;20149;-78
2023/02/05 08:28:26;;;;;;;11.52;5.93;;;;;;;;;;4951861;28;20153;-78
2023/02/05 08:30:55;;;;;;;10.45;5.82;;;;;;;;;;4929116;28;20082;-77
2023/02/05 08:33:22;;;;;;;14.65;6.88;;;;;;;;;;4924277;29;20660;-78
2023/02/05 08:35:49;;;;;;;9.93;6.07;;;;;;;;;;4937667;28;20137;-78
2023/02/05 08:38:15;;;;;;;10.00;6.18;;;;;;;;;;4947162;28;20054;-76
2023/02/05 08:40:42;;;;;;;10.48;6.28;;;;;;;;;;4949942;28;20150;-77
2023/02/05 08:43:10;;;;;;;11.77;7.22;;;;;;;;;;4937855;28;20134;-77
2023/02/05 08:45:37;;;;;;;17.23;7.45;;;;;;;;;;4938307;28;20122;-77
2023/02/05 08:48:04;;;;;;;12.20;5.95;;;;;;;;;;4940932;28;20571;-77
2023/02/05 08:50:31;;;;;;;11.73;6.97;;;;;;;;;;4960786;28;20146;-79
2023/02/05 08:52:58;;;;;;;14.90;6.88;;;;;;;;;;4935822;28;20047;-77
2023/02/05 08:55:25;;;;;;;11.15;6.47;;;;;;;;;;4951344;28;20511;-77
2023/02/05 08:57:52;;;;;;;12.27;6.75;;;;;;;;;;4944374;28;20204;-78
2023/02/05 09:00:20;;;;;;;9.00;5.72;;;;;;;;;;4962863;28;20051;-80
2023/02/05 09:02:46;;;;;;;9.20;6.22;;;;;;;;;;4936832;28;20047;-74
2023/02/05 09:05:16;;;;;;;10.98;5.82;;;;;;;;;;4957952;28;20051;-74
2023/02/05 09:07:43;;;;;;;12.30;6.20;;;;;;;;;;4959732;28;20043;-74
2023/02/05 09:10:11;;;;;;;8.57;6.07;;;;;;;;;;4947855;28;20810;-73
2023/02/05 09:12:38;;;;;;;13.40;7.05;;;;;;;;;;4935306;28;20055;-74
2023/02/05 09:15:06;;;;;;;12.02;7.10;;;;;;;;;;4957669;28;20086;-74
2023/02/05 09:17:33;;;;;;;9.98;6.82;;;;;;;;;;4956049;28;20133;-74
2023/02/05 09:20:00;;;;;;;12.00;6.85;;;;;;;;;;4934740;28;20146;-74
2023/02/05 09:22:27;;;;;;;13.40;7.05;;;;;;;;;;4953315;28;20058;-77
2023/02/05 09:24:53;;;;;;;12.52;7.38;;;;;;;;;;4950893;28;20052;-78
2023/02/05 09:27:20;;;;;;;12.82;7.80;;;;;;;;;;4933472;29;20423;-77
2023/02/05 09:29:47;;;;;;;16.55;7.68;;;;;;;;;;4928176;28;20078;-78
2023/02/05 09:32:14;;;;;;;18.52;8.43;;;;;;;;;;4951827;28;20047;-77
2023/02/05 09:34:41;;;;;;;12.77;7.57;;;;;;;;;;4950515;28;20057;-78
2023/02/05 09:37:08;;;;;;;12.68;7.95;;;;;;;;;;4958544;28;20575;-77
2023/02/05 09:39:36;;;;;;;18.02;9.50;;;;;;;;;;4957368;28;20141;-77
2023/02/05 09:42:35;;;;;;;14.55;7.82;;;;;;;;;;4954653;28;20124;-78
2023/02/05 09:45:37;;;;;;;14.93;9.38;;;;;;;;;;4953857;28;20050;-78
2023/02/05 09:48:37;;;;;;;14.35;7.80;;;;;;;;;;4976899;28;20048;-78
2023/02/05 09:51:04;;;;;;;15.68;8.60;;;;;;;;;;4965418;28;20434;-78
2023/02/05 09:53:36;;;;;;;17.83;8.13;;;;;;;;;;4933664;28;20138;-78
2023/02/05 09:56:03;;;;;;;16.50;8.47;;;;;;;;;;4954013;28;20126;-78
2023/02/05 09:58:30;;;;;;;13.38;8.88;;;;;;;;;;4935438;28;20059;-78
2023/02/05 10:01:02;;;;;;;12.95;7.88;;;;;;;;;;4938278;28;20142;-78
2023/02/05 10:03:43;;;;;;;14.25;8.82;;;;;;;;;;4961086;28;20075;-78
2023/02/05 10:06:34;;;;;;;14.27;8.77;;;;;;;;;;4952442;28;20055;-78
2023/02/05 10:09:39;;;;;;;14.98;9.27;;;;;;;;;;4975019;28;20063;-78
2023/02/05 10:12:11;;;;;;;13.93;8.80;;;;;;;;;;4979212;28;20059;-78
2023/02/05 10:14:50;;;;;;;15.75;9.05;;;;;;;;;;4963106;28;20434;-78
2023/02/05 10:17:20;;;;;;;14.95;9.90;;;;;;;;;;4958505;28;20047;-79
2023/02/05 10:20:19;;;;;;;15.43;9.07;;;;;;;;;;4977368;28;20135;-78
2023/02/05 10:23:24;;;;;;;12.60;9.93;;;;;;;;;;4970748;28;20066;-78
2023/02/05 10:26:29;;;;;;;17.52;9.38;;;;;;;;;;4957583;28;20050;-78
2023/02/05 10:29:18;;;;;;;16.50;10.57;;;;;;;;;;4964671;28;20050;-78
2023/02/05 10:31:54;;;;;;;16.15;10.77;;;;;;;;;;4965430;28;20043;-78
2023/02/05 10:34:51;;;;;;;29.90;12.48;;;;;;;;;;4958510;28;20051;-78
2023/02/05 10:37:20;;;;;;;21.65;13.23;;;;;;;;;;4969346;28;20495;-79
2023/02/05 10:39:48;;;;;;;16.02;11.82;;;;;;;;;;4948828;28;20119;-78
2023/02/05 10:42:28;;;;;;;15.38;9.23;;;;;;;;;;4959467;28;20051;-79
2023/02/05 10:45:00;;;;;;;16.50;9.65;;;;;;;;;;4956280;28;20055;-78
2023/02/05 10:48:01;;;;;;;14.38;10.20;;;;;;;;;;4944194;28;20054;-78
2023/02/05 10:50:52;;;;;;;18.17;10.07;;;;;;;;;;4973427;28;20133;-78
2023/02/05 10:53:21;;;;;;;15.13;9.27;;;;;;;;;;4983300;28;20058;-78
2023/02/05 10:55:48;;;;;;;14.65;9.38;;;;;;;;;;4965811;28;20085;-78
2023/02/05 10:58:38;;;;;;;16.10;10.20;;;;;;;;;;4965846;28;20062;-79
2023/02/05 11:01:24;;;;;;;21.02;10.35;;;;;;;;;;4955826;28;20043;-78
2023/02/05 11:04:30;;;;;;;15.70;9.50;;;;;;;;;;4958189;28;20055;-78
2023/02/05 11:06:58;;;;;;;18.15;9.18;;;;;;;;;;4916099;29;20063;-78
2023/02/05 11:09:27;;;;;;;21.40;10.40;;;;;;;;;;4931161;28;20146;-78
2023/02/05 11:12:08;;;;;;;24.48;11.63;;;;;;;;;;4980829;28;20051;-78
2023/02/05 11:14:36;;;;;;;19.48;9.90;;;;;;;;;;4969961;28;20058;-78
2023/02/05 11:17:25;;;;;;;19.48;10.07;;;;;;;;;;4959945;28;20070;-79
2023/02/05 11:20:04;;;;;;;19.67;10.48;;;;;;;;;;4946700;28;20063;-77
2023/02/05 11:22:36;;;;;;;19.55;10.27;;;;;;;;;;4960339;28;20403;-78
2023/02/05 11:25:13;;;;;;;17.58;10.48;;;;;;;;;;4970030;28;20118;-78
2023/02/05 11:27:40;;;;;;;18.48;10.63;;;;;;;;;;4937838;28;20487;-78
2023/02/05 11:30:21;;;;;;;19.17;10.65;;;;;;;;;;4955439;28;20043;-78
2023/02/05 11:33:16;;;;;;;16.38;9.80;;;;;;;;;;4964814;28;20060;-78
2023/02/05 11:36:00;;;;;;;17.48;9.38;;;;;;;;;;4960781;28;20043;-78
2023/02/05 11:38:32;;;;;;;24.98;10.25;;;;;;;;;;4960465;28;20050;-78
2023/02/05 11:41:02;;;;;;;17.02;9.85;;;;;;;;;;4961968;28;20054;-78
2023/02/05 11:43:35;;;;;;;15.45;9.57;;;;;;;;;;4966181;28;20054;-78
2023/02/05 11:46:09;;;;;;;17.55;9.52;;;;;;;;;;4952646;28;20486;-79
2023/02/05 11:48:36;;;;;;;18.58;9.55;;;;;;;;;;4955580;28;20534;-75
2023/02/05 11:51:05;;;;;;;17.60;10.20;;;;;;;;;;4960858;28;20145;-76
2023/02/05 11:53:31;;;;;;;19.58;9.52;;;;;;;;;;4931901;28;20082;-76
2023/02/05 11:56:01;;;;;;;19.23;9.93;;;;;;;;;;4937119;28;20047;-75
2023/02/05 11:58:30;;;;;;;18.70;9.50;;;;;;;;;;4953598;28;20061;-79
2023/02/05 12:01:22;;;;;;;17.25;10.57;;;;;;;;;;4942598;28;20122;-78
2023/02/05 12:04:02;;;;;;;22.80;11.35;;;;;;;;;;4966495;28;20496;-79
2023/02/05 12:06:35;;;;;;;26.42;14.35;;;;;;;;;;4953589;28;20113;-77
2023/02/05 12:09:02;;;;;;;28.73;12.95;;;;;;;;;;4926872;28;20065;-79
2023/02/05 12:14:40;;;;;;;18.35;9.98;;;;;;;;;;4966306;28;20047;-78
2023/02/05 12:17:23;;;;;;;20.13;10.35;;;;;;;;;;4954798;28;20111;-79
2023/02/05 12:20:08;;;;;;;19.20;9.48;;;;;;;;;;4951372;28;21276;-78
2023/02/05 12:22:52;;;;;;;19.88;10.27;;;;;;;;;;4960191;28;20539;-78
2023/02/05 12:25:50;;;;;;;15.02;9.75;;;;;;;;;;4947164;28;20591;-78
2023/02/05 12:28:44;;;;;;;19.80;10.52;;;;;;;;;;4937734;28;20067;-78
2023/02/05 12:31:39;;;;;;;19.38;10.63;;;;;;;;;;4964454;28;20117;-78
2023/02/05 12:34:42;;;;;;;26.17;11.93;;;;;;;;;;4976849;28;20053;-78
2023/02/05 12:37:27;;;;;;;23.88;12.25;;;;;;;;;;4963654;28;20078;-78
2023/02/05 12:40:33;;;;;;;34.15;14.38;;;;;;;;;;4932894;28;20134;-78
2023/02/05 12:43:18;;;;;;;19.70;11.50;;;;;;;;;;4956655;28;20059;-78
2023/02/05 12:45:54;;;;;;;30.48;13.23;;;;;;;;;;4959716;28;20545;-78
2023/02/05 12:48:40;;;;;;;24.33;13.65;;;;;;;;;;4958953;28;20411;-79
2023/02/05 12:51:18;;;;;;;26.80;14.88;;;;;;;;;;4954413;28;20090;-79
2023/02/05 12:54:06;;;;;;;21.40;12.80;;;;;;;;;;4964136;28;20047;-79
2023/02/05 12:57:05;;;;;;;26.48;14.52;;;;;;;;;;4974406;28;20086;-78
2023/02/05 12:59:38;;;;;;;21.88;13.00;;;;;;;;;;4952738;28;20098;-79
2023/02/05 13:02:24;;;;;;;22.45;13.18;;;;;;;;;;4973498;28;20062;-78
2023/02/05 13:05:05;;;;;;;21.55;13.23;;;;;;;;;;4958901;28;20070;-79
2023/02/05 13:07:39;;;;;;;19.27;11.52;;;;;;;;;;4923738;28;20586;-78
2023/02/05 13:10:27;;;;;;;21.08;11.73;;;;;;;;;;4939882;28;20058;-78
2023/02/05 13:12:58;;;;;;;21.33;11.50;;;;;;;;;;4959952;28;20043;-78
2023/02/05 13:15:48;;;;;;;19.38;12.25;;;;;;;;;;4954757;28;20047;-79
2023/02/05 13:18:21;;;;;;;21.75;11.35;;;;;;;;;;4959498;28;20052;-79
2023/02/05 13:29:18;;;;;;;29.23;14.98;;;;;;;;;;4970063;28;20137;-79
2023/02/05 13:31:50;;;;;;;23.48;13.52;;;;;;;;;;4948122;28;20054;-79
2023/02/05 13:34:18;;;;;;;18.77;12.02;;;;;;;;;;4939593;28;20066;-79
2023/02/05 13:36:59;;;;;;;22.15;15.10;;;;;;;;;;4966947;28;20142;-79
2023/02/05 13:39:33;;;;;;;23.77;14.23;;;;;;;;;;4960991;28;20173;-79
2023/02/05 13:42:09;;;;;;;22.42;15.05;;;;;;;;;;4952353;28;20051;-79
2023/02/05 13:44:53;;;;;;;19.25;13.70;;;;;;;;;;4970645;28;20109;-79
2023/02/05 13:47:32;;;;;;;24.58;12.50;;;;;;;;;;4950926;28;20471;-78
2023/02/05 13:50:22;;;;;;;18.70;12.38;;;;;;;;;;4955218;28;20086;-79
2023/02/05 13:53:04;;;;;;;22.85;13.45;;;;;;;;;;4973575;28;20092;-79
2023/02/05 13:55:38;;;;;;;;;;;;;;;;;;4976246;28;20055;-79
2023/02/05 13:58:11;;;;;;;22.38;14.05;;;;;;;;;;4960372;28;19922;-78
2023/02/05 14:00:41;;;;;;;;;;;;;;;;;;4974072;28;20051;-78
2023/02/05 14:03:33;;;;;;;19.85;12.50;;;;;;;;;;4956022;28;19927;-78
2023/02/05 14:06:12;;;;;;;17.38;10.35;;;;;;;;;;4946768;28;20130;-78
2023/02/05 14:08:41;;;;;;;16.17;9.93;;;;;;;;;;4944260;28;20055;-78
2023/02/05 14:11:08;;;;;;;18.88;11.73;;;;;;;;;;4935978;28;20062;-78
2023/02/05 14:13:35;;;;;;;17.60;9.27;;;;;;;;;;4973288;28;20074;-79
2023/02/05 14:16:24;;;;;;;13.52;7.40;;;;;;;;;;4982973;28;20305;-78
2023/02/05 14:19:00;;;;;;;7.43;5.80;;;;;;;;;;4993900;28;20046;-78
2023/02/05 14:21:30;;;;;;;7.70;6.30;;;;;;;;;;4996634;28;20058;-78
2023/02/05 14:24:01;;;;;;;5.45;4.88;;;;;;;;;;4956604;28;20103;-78
2023/02/05 14:26:45;;;;;;;6.95;4.90;;;;;;;;;;4955899;28;20471;-78
2023/02/05 14:29:44;;;;;;;10.20;6.78;;;;;;;;;;4955796;28;20079;-82
2023/02/05 14:32:26;;;;;;;8.00;6.05;;;;;;;;;;4959758;28;20139;-78
2023/02/05 14:35:20;;;;;;;6.00;4.63;;;;;;;;;;4959906;28;20051;-79
2023/02/05 14:37:48;;;;;;;7.03;5.82;;;;;;;;;;4962470;28;20079;-78
2023/02/05 14:40:35;;;;;;;8.13;5.38;;;;;;;;;;4925234;28;20057;-79
2023/02/05 14:43:45;;;;;;;8.15;5.88;;;;;;;;;;4952213;28;20078;-79
2023/02/05 14:46:27;;;;;;;9.27;5.50;;;;;;;;;;4974945;28;20059;-78
2023/02/05 14:48:57;;;;;;;8.65;6.30;;;;;;;;;;4961387;28;20055;-79
2023/02/05 14:51:37;;;;;;;8.95;6.13;;;;;;;;;;4939958;28;20061;-78
2023/02/05 14:54:10;;;;;;;10.35;6.93;;;;;;;;;;4958873;28;20126;-79
2023/02/05 14:56:45;;;;;;;10.38;6.90;;;;;;;;;;4961545;28;20059;-79
2023/02/05 14:59:28;;;;;;;8.35;6.10;;;;;;;;;;4939854;28;20073;-79
2023/02/05 15:01:56;;;;;;;9.13;5.15;;;;;;;;;;4962736;28;20513;-79
2023/02/05 15:04:48;;;;;;;7.32;5.53;;;;;;;;;;4935105;28;20042;-78
2023/02/05 15:07:19;;;;;;;8.25;5.38;;;;;;;;;;4954602;28;20615;-78
2023/02/05 15:09:52;;;;;;;7.28;5.28;;;;;;;;;;4937469;28;20055;-78
2023/02/05 15:12:38;;;;;;;8.27;6.22;;;;;;;;;;4953576;28;20500;-78
2023/02/05 15:15:37;;;;;;;7.75;6.13;;;;;;;;;;4946635;28;20055;-78
2023/02/05 15:18:28;;;;;;;7.07;5.35;;;;;;;;;;4918972;28;20055;-77
2023/02/05 15:20:55;;;;;;;6.70;5.72;;;;;;;;;;4976677;28;20082;-78
2023/02/05 15:23:28;;;;;;;5.80;4.93;;;;;;;;;;4959613;28;20085;-78